Lanes Prairie, Missouri
Current Conditions -  °F | °C
As of 10:53 AM on Friday 28 Nov 2014 (Local Time) from KVIH Reporting Station
Clear Clear  
Wind Chill: 39°   Ceiling: Unl
Heat Index: 46°   Visibility: 10mi
Dew Point: 30°   Wind: 18mph
Humidity: 54%   Direction: 200°SSW
Pressure: 30.06"   Gusts: 30mph
Location:  38.2601°N, 91.7526°W
Report Text: KVIH 281653Z AUTO 20016G26KT 10SM CLR 08/M01 A3006 RMK AO2 PK WND 19026/1623 SLP185 T00781011
Loading
Personal Weather Stations






























Interactive Weather Map New forecast layout! Learn more

10-Day Weather Forecast

Advertisements
Track Severe Weather on mobile